createdAt,value
2018-09-22T00:00:00.422Z,17.17
2018-09-22T00:02:29.282Z,15.93
2018-09-22T00:04:57.741Z,15.30
2018-09-22T00:07:26.223Z,16.17
2018-09-22T00:09:54.820Z,15.90
2018-09-22T00:12:23.259Z,16.80
2018-09-22T00:14:51.809Z,15.57
2018-09-22T00:17:20.319Z,17.97
2018-09-22T00:19:48.900Z,17.23
2018-09-22T00:22:17.426Z,17.97
2018-09-22T00:24:45.905Z,16.03
2018-09-22T00:27:14.415Z,15.57
2018-09-22T00:29:42.913Z,15.50
2018-09-22T00:32:11.383Z,16.93
2018-09-22T00:34:39.834Z,15.60
2018-09-22T00:37:08.615Z,15.87
2018-09-22T00:39:37.102Z,15.60
2018-09-22T00:42:05.940Z,18.80
2018-09-22T00:44:34.433Z,16.60
2018-09-22T00:47:02.910Z,19.83
2018-09-22T00:49:31.519Z,13.40
2018-09-22T00:52:00.004Z,12.97
2018-09-22T00:54:28.510Z,14.17
2018-09-22T00:56:57.021Z,11.03
2018-09-22T00:59:25.460Z,12.23
2018-09-22T01:01:53.965Z,13.57
2018-09-22T01:04:22.445Z,13.73
2018-09-22T01:06:50.898Z,12.97
2018-09-22T01:09:19.356Z,12.53
2018-09-22T01:11:47.831Z,11.27
2018-09-22T01:14:16.282Z,10.20
2018-09-22T01:16:44.768Z,15.63
2018-09-22T01:19:13.240Z,5.50
2018-09-22T01:21:41.697Z,8.40
2018-09-22T01:24:10.354Z,4.43
2018-09-22T01:26:38.854Z,1.87
2018-09-22T01:29:07.435Z,1.87
2018-09-22T01:31:35.908Z,4.77
2018-09-22T01:34:04.350Z,2.63
2018-09-22T01:36:32.897Z,1.50
2018-09-22T01:39:01.498Z,0.83
2018-09-22T01:41:30.091Z,2.10
2018-09-22T01:43:58.732Z,1.70
2018-09-22T01:46:27.273Z,1.40
2018-09-22T01:48:56.003Z,1.37
2018-09-22T01:51:24.574Z,2.90
2018-09-22T01:53:53.098Z,1.53
2018-09-22T01:56:21.639Z,2.07
2018-09-22T01:58:50.202Z,0.73
2018-09-22T02:01:18.791Z,1.10
2018-09-22T02:03:47.378Z,1.20
2018-09-22T02:06:16.218Z,1.07
2018-09-22T02:08:44.750Z,1.17
2018-09-22T02:11:13.277Z,1.70
2018-09-22T02:13:41.810Z,2.33
2018-09-22T02:16:11.052Z,1.73
2018-09-22T02:18:39.504Z,0.73
2018-09-22T02:21:07.985Z,2.73
2018-09-22T02:23:36.685Z,1.20
2018-09-22T02:26:05.187Z,1.00
2018-09-22T02:28:34.156Z,0.70
2018-09-22T02:31:02.669Z,4.37
2018-09-22T02:33:31.274Z,1.97
2018-09-22T02:35:59.724Z,2.93
2018-09-22T02:38:28.217Z,1.23
2018-09-22T02:40:56.664Z,2.60
2018-09-22T02:43:25.272Z,3.30
2018-09-22T02:45:53.763Z,2.70
2018-09-22T02:48:22.201Z,1.97
2018-09-22T02:50:50.652Z,2.40
2018-09-22T02:53:19.154Z,2.57
2018-09-22T02:55:47.779Z,2.37
2018-09-22T02:58:16.328Z,3.57
2018-09-22T03:00:44.854Z,3.33
2018-09-22T03:03:13.519Z,3.30
2018-09-22T03:05:42.115Z,3.20
2018-09-22T03:08:10.572Z,2.80
2018-09-22T03:10:39.161Z,4.20
2018-09-22T03:13:07.609Z,3.73
2018-09-22T03:15:36.111Z,3.40
2018-09-22T03:18:04.602Z,4.53
2018-09-22T03:20:33.034Z,6.23
2018-09-22T03:23:01.474Z,4.73
2018-09-22T03:25:29.954Z,6.43
2018-09-22T03:27:58.426Z,6.10
2018-09-22T03:30:26.859Z,4.30
2018-09-22T03:32:55.530Z,6.63
2018-09-22T03:35:24.054Z,9.03
2018-09-22T03:37:52.595Z,5.97
2018-09-22T03:40:21.077Z,4.37
2018-09-22T03:42:49.871Z,8.87
2018-09-22T03:45:18.483Z,6.37
2018-09-22T03:47:46.936Z,5.50
2018-09-22T03:50:15.448Z,4.93
2018-09-22T03:52:44.514Z,6.30
2018-09-22T03:55:13.027Z,4.07
2018-09-22T03:57:41.522Z,4.57
2018-09-22T04:00:10.456Z,3.30
2018-09-22T04:02:38.955Z,5.00
2018-09-22T04:05:07.781Z,5.37
2018-09-22T04:07:36.636Z,3.40
2018-09-22T04:10:05.337Z,5.63
2018-09-22T04:12:33.784Z,5.10
2018-09-22T04:15:02.289Z,4.97
2018-09-22T04:17:30.764Z,5.23
2018-09-22T04:19:59.329Z,6.10
2018-09-22T04:22:28.143Z,6.23
2018-09-22T04:24:56.678Z,8.47
2018-09-22T04:27:25.183Z,6.40
2018-09-22T04:29:53.725Z,5.70
2018-09-22T04:32:22.203Z,8.30
2018-09-22T04:34:50.735Z,6.73
2018-09-22T04:37:19.236Z,7.37
2018-09-22T04:39:47.746Z,6.80
2018-09-22T04:42:16.225Z,7.50
2018-09-22T04:44:44.917Z,6.40
2018-09-22T04:47:13.563Z,10.57
2018-09-22T04:49:42.075Z,5.77
2018-09-22T04:52:10.630Z,11.23
2018-09-22T04:54:39.127Z,7.93
2018-09-22T04:57:07.857Z,8.33
2018-09-22T04:59:36.344Z,8.13
2018-09-22T05:02:04.937Z,9.63
2018-09-22T05:04:33.535Z,9.70
2018-09-22T05:07:02.281Z,9.13
2018-09-22T05:09:30.785Z,12.00
2018-09-22T05:11:59.378Z,10.17
2018-09-22T05:14:27.930Z,12.10
2018-09-22T05:16:56.839Z,11.13
2018-09-22T05:19:25.338Z,14.30
2018-09-22T05:21:53.921Z,11.90
2018-09-22T05:24:22.780Z,13.33
2018-09-22T05:26:51.264Z,13.30
2018-09-22T05:29:19.755Z,13.23
2018-09-22T05:31:48.250Z,13.67
2018-09-22T05:34:16.801Z,12.40
2018-09-22T05:36:45.339Z,12.80
2018-09-22T05:39:13.795Z,17.60
2018-09-22T05:41:42.305Z,14.53
2018-09-22T05:44:10.802Z,15.80
2018-09-22T05:46:39.242Z,13.27
2018-09-22T05:49:07.806Z,14.67
2018-09-22T05:51:36.305Z,16.83
2018-09-22T05:54:04.790Z,17.70
2018-09-22T05:56:33.285Z,16.20
2018-09-22T05:59:01.893Z,17.47
2018-09-22T06:01:30.605Z,15.90
2018-09-22T06:03:59.167Z,16.27
2018-09-22T06:06:27.594Z,19.07
2018-09-22T06:08:56.153Z,19.53
2018-09-22T06:11:24.618Z,19.60
2018-09-22T06:13:53.165Z,23.17
2018-09-22T06:16:21.651Z,17.90
2018-09-22T06:18:50.133Z,20.77
2018-09-22T06:21:18.606Z,20.73
2018-09-22T06:23:47.090Z,18.03
2018-09-22T06:26:15.648Z,18.67
2018-09-22T06:28:44.237Z,18.27
2018-09-22T06:31:12.715Z,18.67
2018-09-22T06:33:41.279Z,15.80
2018-09-22T06:36:09.872Z,16.10
2018-09-22T06:38:38.454Z,17.93
2018-09-22T06:41:07.051Z,15.83
2018-09-22T06:43:35.633Z,17.33
2018-09-22T06:46:04.164Z,15.87
2018-09-22T06:48:32.967Z,16.90
2018-09-22T06:51:01.847Z,17.30
2018-09-22T06:53:30.448Z,16.70
2018-09-22T06:55:58.935Z,18.33
2018-09-22T06:58:27.494Z,18.97
2018-09-22T07:00:55.973Z,20.37
2018-09-22T07:03:24.505Z,20.47
2018-09-22T07:05:52.991Z,18.60
2018-09-22T07:08:21.576Z,20.87
2018-09-22T07:10:50.054Z,23.53
2018-09-22T07:13:18.586Z,20.13
2018-09-22T07:15:47.441Z,19.93
2018-09-22T07:18:16.111Z,18.53
2018-09-22T07:20:50.187Z,18.83
2018-09-22T07:23:19.184Z,20.80
2018-09-22T07:25:47.797Z,20.07
2018-09-22T07:28:16.313Z,19.03
2018-09-22T07:30:44.892Z,19.90
2018-09-22T07:33:13.518Z,21.93
2018-09-22T07:35:42.173Z,18.27
2018-09-22T07:38:10.660Z,18.43
2018-09-22T07:40:39.178Z,18.40
2018-09-22T07:43:08.200Z,18.73
2018-09-22T07:45:36.722Z,22.97
2018-09-22T07:48:05.577Z,16.90
2018-09-22T07:50:34.081Z,17.77
2018-09-22T07:53:02.839Z,19.67
2018-09-22T07:55:31.492Z,19.70
2018-09-22T07:57:59.976Z,19.50
2018-09-22T08:00:28.610Z,19.30
2018-09-22T08:02:57.131Z,21.40
2018-09-22T08:05:25.663Z,18.70
2018-09-22T08:07:54.168Z,20.37
2018-09-22T08:10:22.660Z,17.70
2018-09-22T08:12:51.261Z,20.67
2018-09-22T08:15:20.606Z,19.57
2018-09-22T08:17:49.081Z,18.13
2018-09-22T08:20:17.591Z,15.20
2018-09-22T08:22:46.110Z,16.17
2018-09-22T08:25:14.737Z,17.30
2018-09-22T08:27:43.524Z,18.23
2018-09-22T08:30:11.981Z,17.83
2018-09-22T08:32:40.466Z,14.80
2018-09-22T08:35:09.036Z,16.60
2018-09-22T08:37:37.500Z,16.37
2018-09-22T08:40:06.065Z,16.70
2018-09-22T08:42:34.712Z,16.73
2018-09-22T08:45:03.272Z,18.27
2018-09-22T08:47:32.015Z,14.07
2018-09-22T08:50:00.682Z,15.73
2018-09-22T08:52:29.183Z,14.43
2018-09-22T08:54:57.734Z,15.90
2018-09-22T08:57:26.198Z,13.63
2018-09-22T08:59:54.818Z,11.70
2018-09-22T09:02:23.357Z,13.43
2018-09-22T09:04:52.067Z,13.00
2018-09-22T09:07:20.648Z,10.27
2018-09-22T09:09:49.127Z,12.27
2018-09-22T09:12:17.689Z,10.73
2018-09-22T09:14:46.321Z,11.97
2018-09-22T09:17:14.816Z,10.33
2018-09-22T09:19:43.685Z,9.30
2018-09-22T09:22:12.176Z,14.37
2018-09-22T09:24:40.847Z,13.37
2018-09-22T09:27:09.463Z,13.77
2018-09-22T09:29:38.152Z,8.90
2018-09-22T09:32:06.735Z,11.37
2018-09-22T09:34:35.269Z,10.00
2018-09-22T09:37:03.740Z,10.37
2018-09-22T09:39:32.208Z,10.60
2018-09-22T09:42:00.726Z,11.67
2018-09-22T09:44:29.485Z,11.47
2018-09-22T09:46:58.129Z,13.17
2018-09-22T09:49:26.701Z,13.03
2018-09-22T09:51:55.188Z,12.87
2018-09-22T09:54:23.699Z,10.30
2018-09-22T09:56:52.211Z,9.10
2018-09-22T09:59:20.995Z,9.80
2018-09-22T10:01:49.988Z,10.60
2018-09-22T10:04:18.575Z,9.33
2018-09-22T10:06:47.425Z,11.97
2018-09-22T10:09:16.025Z,9.37
2018-09-22T10:11:44.718Z,10.37
2018-09-22T10:14:13.389Z,9.77
2018-09-22T10:16:41.941Z,10.87
2018-09-22T10:19:10.437Z,10.83
2018-09-22T10:21:38.902Z,9.90
2018-09-22T10:24:07.686Z,9.53
2018-09-22T10:26:36.391Z,11.03
2018-09-22T10:29:05.213Z,7.23
2018-09-22T10:31:33.712Z,9.70
2018-09-22T10:34:02.418Z,8.87
2018-09-22T10:36:31.164Z,8.97
2018-09-22T10:38:59.777Z,9.10
2018-09-22T10:41:28.590Z,10.13
2018-09-22T10:43:58.137Z,6.90
2018-09-22T10:46:27.714Z,7.57
2018-09-22T10:48:56.211Z,6.03
2018-09-22T10:51:24.712Z,8.67
2018-09-22T10:53:53.210Z,7.73
2018-09-22T10:56:21.687Z,7.13
2018-09-22T10:58:50.477Z,7.60
2018-09-22T11:01:19.271Z,7.13
2018-09-22T11:03:47.997Z,5.63
2018-09-22T11:06:16.522Z,5.57
2018-09-22T11:08:46.103Z,3.10
2018-09-22T11:11:14.698Z,6.63
2018-09-22T11:13:45.786Z,5.03
2018-09-22T11:16:14.251Z,5.73
2018-09-22T11:18:42.889Z,5.70
2018-09-22T11:21:11.391Z,7.07
2018-09-22T11:23:40.273Z,4.93
2018-09-22T11:26:08.779Z,4.83
2018-09-22T11:28:37.576Z,5.53
2018-09-22T11:31:06.653Z,5.30
2018-09-22T11:33:35.241Z,6.13
2018-09-22T11:36:03.739Z,5.73
2018-09-22T11:38:32.193Z,7.93
2018-09-22T11:41:00.916Z,6.10
2018-09-22T11:43:29.446Z,6.60
2018-09-22T11:45:57.916Z,4.53
2018-09-22T11:48:26.414Z,6.63
2018-09-22T11:50:54.884Z,5.20
2018-09-22T11:53:23.459Z,6.90
2018-09-22T11:55:53.193Z,4.70
2018-09-22T11:58:21.803Z,6.23
2018-09-22T12:00:50.350Z,5.00
2018-09-22T12:03:18.934Z,5.03
2018-09-22T12:05:47.567Z,4.90
2018-09-22T12:08:16.194Z,5.13
2018-09-22T12:10:44.992Z,5.17
2018-09-22T12:13:13.573Z,8.33
2018-09-22T12:15:42.302Z,4.20
2018-09-22T12:18:11.106Z,4.20
2018-09-22T12:20:39.665Z,5.23
2018-09-22T12:23:08.230Z,4.83
2018-09-22T12:25:36.761Z,5.53
2018-09-22T12:28:05.406Z,5.17
2018-09-22T12:30:35.257Z,6.67
2018-09-22T12:33:03.837Z,37.80
2018-09-22T12:35:32.341Z,7.20
2018-09-22T12:38:01.195Z,4.13
2018-09-22T12:40:29.843Z,4.00
2018-09-22T12:42:58.331Z,8.23
2018-09-22T12:45:27.139Z,9.80
2018-09-22T12:47:55.622Z,8.57
2018-09-22T12:50:25.414Z,6.90
2018-09-22T12:52:54.026Z,7.43
2018-09-22T12:55:22.578Z,6.83
2018-09-22T12:57:51.086Z,7.97
2018-09-22T13:00:19.634Z,8.37
2018-09-22T13:02:48.165Z,6.83
2018-09-22T13:05:16.630Z,4.73
2018-09-22T13:07:45.109Z,4.80
2018-09-22T13:10:14.637Z,6.93
2018-09-22T13:12:43.365Z,5.87
2018-09-22T13:15:11.931Z,5.73
2018-09-22T13:17:40.453Z,3.57
2018-09-22T13:20:09.164Z,4.07
2018-09-22T13:22:38.706Z,5.97
2018-09-22T13:25:07.259Z,6.33
2018-09-22T13:27:35.789Z,4.83
2018-09-22T13:30:04.791Z,8.13
2018-09-22T13:32:33.288Z,8.03
2018-09-22T13:35:02.527Z,4.03
2018-09-22T13:37:31.222Z,3.83
2018-09-22T13:40:00.206Z,4.83
2018-09-22T13:42:28.715Z,4.80
2018-09-22T13:44:57.231Z,5.53
2018-09-22T13:47:25.758Z,6.20
2018-09-22T13:49:54.245Z,6.13
2018-09-22T13:52:22.756Z,4.10
2018-09-22T13:54:51.393Z,6.93
2018-09-22T13:57:19.898Z,5.50
2018-09-22T13:59:48.429Z,7.43
2018-09-22T14:02:17.095Z,6.60
2018-09-22T14:04:45.701Z,6.90
2018-09-22T14:07:14.195Z,6.27
2018-09-22T14:09:42.686Z,5.13
2018-09-22T14:12:11.350Z,7.60
2018-09-22T14:14:41.791Z,5.60
2018-09-22T14:17:10.365Z,6.90
2018-09-22T14:19:39.024Z,6.50
2018-09-22T14:22:07.827Z,7.67
2018-09-22T14:24:36.318Z,5.13
2018-09-22T14:27:04.983Z,5.97
2018-09-22T14:29:33.412Z,5.60
2018-09-22T14:32:01.868Z,7.43
2018-09-22T14:34:30.334Z,7.00
2018-09-22T14:36:58.813Z,8.00
2018-09-22T14:39:27.346Z,5.77
2018-09-22T14:41:55.837Z,8.57
2018-09-22T14:44:24.334Z,7.43
2018-09-22T14:46:52.840Z,7.17
2018-09-22T14:49:21.303Z,5.63
2018-09-22T14:51:49.878Z,6.77
2018-09-22T14:54:18.402Z,6.10
2018-09-22T14:56:46.926Z,4.33
2018-09-22T14:59:15.570Z,4.80
2018-09-22T15:01:44.241Z,5.63
2018-09-22T15:04:12.735Z,5.13
2018-09-22T15:06:41.173Z,5.00
2018-09-22T15:09:09.681Z,6.97
2018-09-22T15:11:38.360Z,2.93
2018-09-22T15:14:07.090Z,4.13
2018-09-22T15:16:35.554Z,4.67
2018-09-22T15:19:04.225Z,6.33
2018-09-22T15:21:32.808Z,8.20
2018-09-22T15:24:01.343Z,4.67
2018-09-22T15:26:30.162Z,4.93
2018-09-22T15:28:58.642Z,4.30
2018-09-22T15:31:27.307Z,5.83
2018-09-22T15:33:55.821Z,5.47
2018-09-22T15:36:24.287Z,5.10
2018-09-22T15:38:52.766Z,4.53
2018-09-22T15:41:21.357Z,4.67
2018-09-22T15:43:49.924Z,5.07
2018-09-22T15:46:18.543Z,4.53
2018-09-22T15:48:47.080Z,6.87
2018-09-22T15:51:15.560Z,5.37
2018-09-22T15:53:44.176Z,3.90
2018-09-22T15:56:12.682Z,7.47
2018-09-22T15:58:41.157Z,6.73
2018-09-22T16:01:09.904Z,5.80
2018-09-22T16:03:38.433Z,4.97
2018-09-22T16:06:07.202Z,4.27
2018-09-22T16:08:35.883Z,6.13
2018-09-22T16:11:04.590Z,7.03
2018-09-22T16:13:33.138Z,3.93
2018-09-22T16:16:01.618Z,3.60
2018-09-22T16:18:30.216Z,4.77
2018-09-22T16:20:58.754Z,5.67
2018-09-22T16:23:27.292Z,9.03
2018-09-22T16:25:55.773Z,10.50
2018-09-22T16:28:24.568Z,7.53
2018-09-22T16:30:53.282Z,7.47
2018-09-22T16:33:22.359Z,9.90
2018-09-22T16:35:50.886Z,6.97
2018-09-22T16:38:19.357Z,7.20
2018-09-22T16:40:48.071Z,8.83
2018-09-22T16:43:16.873Z,8.03
2018-09-22T16:45:45.397Z,10.17
2018-09-22T16:48:13.948Z,7.83
2018-09-22T16:50:43.386Z,6.07
2018-09-22T16:53:11.872Z,7.33
2018-09-22T16:55:40.810Z,6.73
2018-09-22T16:58:09.745Z,6.43
2018-09-22T17:00:38.203Z,8.07
2018-09-22T17:03:06.749Z,7.23
2018-09-22T17:05:35.244Z,8.63
2018-09-22T17:08:03.890Z,9.50
2018-09-22T17:10:32.399Z,8.83
2018-09-22T17:13:01.159Z,9.23
2018-09-22T17:15:29.621Z,8.10
2018-09-22T17:17:58.289Z,10.13
2018-09-22T17:20:26.996Z,7.50
2018-09-22T17:22:55.464Z,7.63
2018-09-22T17:25:23.978Z,9.53
2018-09-22T17:27:52.449Z,7.57
2018-09-22T17:30:21.613Z,6.57
2018-09-22T17:32:50.109Z,5.80
2018-09-22T17:35:18.580Z,7.07
2018-09-22T17:37:47.280Z,8.33
2018-09-22T17:40:15.837Z,5.83
2018-09-22T17:42:44.615Z,9.33
2018-09-22T17:45:13.206Z,7.93
2018-09-22T17:47:41.899Z,6.37
2018-09-22T17:50:10.413Z,7.37
2018-09-22T17:52:39.048Z,8.60
2018-09-22T17:55:07.656Z,7.00
2018-09-22T17:57:36.443Z,10.73
2018-09-22T18:00:05.410Z,9.83
2018-09-22T18:02:33.902Z,8.63
2018-09-22T18:05:02.389Z,8.67
2018-09-22T18:07:30.974Z,8.90
2018-09-22T18:09:59.480Z,9.97
2018-09-22T18:12:28.341Z,10.00
2018-09-22T18:14:57.216Z,10.53
2018-09-22T18:17:25.719Z,10.70
2018-09-22T18:19:54.235Z,9.07
2018-09-22T18:22:22.715Z,9.63
2018-09-22T18:24:51.213Z,11.47
2018-09-22T18:27:20.042Z,12.97
2018-09-22T18:29:48.561Z,12.20
2018-09-22T18:32:17.066Z,12.73
2018-09-22T18:34:45.759Z,11.37
2018-09-22T18:37:14.390Z,11.87
2018-09-22T18:39:42.921Z,13.80
2018-09-22T18:42:11.433Z,13.53
2018-09-22T18:44:40.102Z,14.37
2018-09-22T18:47:08.711Z,11.73
2018-09-22T18:49:37.241Z,14.30
2018-09-22T18:52:05.957Z,11.80
2018-09-22T18:54:34.449Z,14.43
2018-09-22T18:57:03.099Z,11.57
2018-09-22T18:59:33.407Z,12.63
2018-09-22T19:02:01.903Z,13.43
2018-09-22T19:04:30.386Z,14.57
2018-09-22T19:06:58.933Z,14.90
2018-09-22T19:09:27.503Z,14.47
2018-09-22T19:11:56.003Z,13.27
2018-09-22T19:14:30.093Z,15.83
2018-09-22T19:17:05.511Z,13.73
2018-09-22T19:19:41.735Z,12.73
2018-09-22T19:22:13.628Z,17.00
2018-09-22T19:24:49.060Z,14.87
2018-09-22T19:27:28.629Z,14.37
2018-09-22T19:30:05.027Z,15.63
2018-09-22T19:32:39.622Z,15.57
2018-09-22T19:35:14.903Z,14.13
2018-09-22T19:37:50.952Z,13.83
2018-09-22T19:40:30.623Z,15.20
2018-09-22T19:43:12.803Z,15.23
2018-09-22T19:45:47.749Z,17.37
2018-09-22T19:48:20.099Z,20.27
2018-09-22T19:50:54.257Z,13.77
2018-09-22T19:53:22.822Z,16.37
2018-09-22T19:55:51.347Z,15.30
2018-09-22T19:58:20.011Z,18.17
2018-09-22T20:00:48.752Z,16.20
2018-09-22T20:03:17.410Z,16.77
2018-09-22T20:05:46.071Z,17.43
2018-09-22T20:08:14.683Z,18.07
2018-09-22T20:10:43.338Z,16.60
2018-09-22T20:13:12.085Z,17.53
2018-09-22T20:15:40.737Z,17.03
2018-09-22T20:18:09.595Z,18.43
2018-09-22T20:20:38.617Z,18.43
2018-09-22T20:23:07.264Z,17.50
2018-09-22T20:25:35.847Z,16.97
2018-09-22T20:28:04.557Z,17.80
2018-09-22T20:30:33.125Z,19.17
2018-09-22T20:33:01.891Z,21.83
2018-09-22T20:35:30.473Z,20.40
2018-09-22T20:37:59.068Z,18.20
2018-09-22T20:40:27.689Z,18.37
2018-09-22T20:42:56.563Z,16.83
2018-09-22T20:45:25.138Z,17.37
2018-09-22T20:47:53.879Z,15.43
2018-09-22T20:50:22.453Z,16.63
2018-09-22T20:52:51.018Z,17.23
2018-09-22T20:55:19.747Z,18.27
2018-09-22T20:57:49.317Z,15.43
2018-09-22T21:00:17.861Z,14.47
2018-09-22T21:02:46.493Z,17.03
2018-09-22T21:05:15.281Z,16.07
2018-09-22T21:07:43.764Z,19.07
2018-09-22T21:10:12.373Z,18.47
2018-09-22T21:12:41.846Z,18.13
2018-09-22T21:15:10.563Z,17.07
2018-09-22T21:17:39.538Z,16.50
2018-09-22T21:20:08.180Z,15.90
2018-09-22T21:22:37.016Z,19.10
2018-09-22T21:25:05.563Z,17.17
2018-09-22T21:27:34.060Z,19.30
2018-09-22T21:30:02.811Z,19.03
2018-09-22T21:32:31.349Z,19.43
2018-09-22T21:34:59.889Z,20.27
2018-09-22T21:37:28.466Z,17.83
2018-09-22T21:39:57.271Z,16.90
2018-09-22T21:42:25.789Z,19.13
2018-09-22T21:44:54.378Z,17.93
2018-09-22T21:47:23.053Z,17.00
2018-09-22T21:49:51.563Z,20.47
2018-09-22T21:52:20.170Z,19.67
2018-09-22T21:54:48.702Z,16.67
2018-09-22T21:57:17.374Z,19.00
2018-09-22T21:59:46.023Z,18.77
2018-09-22T22:02:14.541Z,17.90
2018-09-22T22:04:43.516Z,16.23
2018-09-22T22:07:12.180Z,19.83
2018-09-22T22:09:40.904Z,18.10
2018-09-22T22:12:09.517Z,19.03
2018-09-22T22:14:38.137Z,18.27
2018-09-22T22:17:06.704Z,16.13
2018-09-22T22:19:35.286Z,17.80
2018-09-22T22:22:03.921Z,17.40
2018-09-22T22:24:32.458Z,15.47
2018-09-22T22:27:01.007Z,17.47
2018-09-22T22:29:30.725Z,17.73
2018-09-22T22:31:59.246Z,18.47
2018-09-22T22:34:27.928Z,17.30
2018-09-22T22:36:56.498Z,17.33
2018-09-22T22:39:25.151Z,19.90
2018-09-22T22:41:53.751Z,18.90
2018-09-22T22:44:22.467Z,16.67
2018-09-22T22:46:51.022Z,18.57
2018-09-22T22:49:19.612Z,19.67
2018-09-22T22:51:48.155Z,17.07
2018-09-22T22:54:16.906Z,16.43
2018-09-22T22:56:45.721Z,16.57
2018-09-22T22:59:14.221Z,15.90
2018-09-22T23:01:42.785Z,19.20
2018-09-22T23:04:11.387Z,13.67
2018-09-22T23:06:40.189Z,16.23
2018-09-22T23:09:09.922Z,19.23
2018-09-22T23:11:38.522Z,16.60
2018-09-22T23:14:07.124Z,16.37
2018-09-22T23:16:36.187Z,14.60
2018-09-22T23:19:05.591Z,17.50
2018-09-22T23:21:34.407Z,17.47
2018-09-22T23:24:02.945Z,18.67
2018-09-22T23:26:31.508Z,15.53
2018-09-22T23:29:00.091Z,18.00
2018-09-22T23:31:28.675Z,18.13
2018-09-22T23:33:57.216Z,19.10
2018-09-22T23:36:25.902Z,19.30
2018-09-22T23:38:54.683Z,16.13
2018-09-22T23:41:23.369Z,15.17
2018-09-22T23:43:51.879Z,17.17
2018-09-22T23:46:20.400Z,16.07
2018-09-22T23:48:49.047Z,18.97
2018-09-22T23:51:17.540Z,18.03
2018-09-22T23:53:46.123Z,19.70
2018-09-22T23:56:14.743Z,15.90
2018-09-22T23:58:43.435Z,15.97
